NCAR-RAP Real-Time Weather Data

Output produced by METARs form (23 February 2024  21:35 UTC)
found at http://weather.rap.ucar.edu/surface/
 
Conditions at: KSPI observed 23 February 2024  20:52 UTC
Temperature: 15.0°C (59°F)
Dewpoint: -0.6°C (31°F) [RH = 34%]
Pressure (altimeter): 29.71 inches Hg (1006.2 mb)
[Sea-level pressure: 1006.1 mb]
Winds: from the W (260 degrees) at 23 MPH (20 knots; 10.4 m/s)
gusting to 28 MPH (24 knots; 12.5 m/s)
Visibility: 10 or more miles (16+ km)
Ceiling: at least 12,000 feet AGL
Clouds: few clouds at 7000 feet AGL
Present Weather: no significant weather observed at this time
KSPI 232052Z 26020G24KT 10SM FEW070 15/M01 A2971 RMK AO2 SLP061 T01501006 56029